sensor_id;sensor_type;location;lat;lon;timestamp;temperature;humidity
68480;DHT22;55469;48.934;12.050;2022-07-24T00:01:00;27.00;52.90
68480;DHT22;55469;48.934;12.050;2022-07-24T00:03:25;26.90;53.00
68480;DHT22;55469;48.934;12.050;2022-07-24T00:05:52;26.90;53.10
68480;DHT22;55469;48.934;12.050;2022-07-24T00:08:18;26.90;53.20
68480;DHT22;55469;48.934;12.050;2022-07-24T00:10:44;26.90;53.20
68480;DHT22;55469;48.934;12.050;2022-07-24T00:13:10;26.80;53.10
68480;DHT22;55469;48.934;12.050;2022-07-24T00:15:35;26.80;53.20
68480;DHT22;55469;48.934;12.050;2022-07-24T00:18:01;26.80;53.20
68480;DHT22;55469;48.934;12.050;2022-07-24T00:20:27;26.80;53.30
68480;DHT22;55469;48.934;12.050;2022-07-24T00:22:52;26.80;53.30
68480;DHT22;55469;48.934;12.050;2022-07-24T00:25:18;26.80;53.40
68480;DHT22;55469;48.934;12.050;2022-07-24T00:27:44;26.80;53.40
68480;DHT22;55469;48.934;12.050;2022-07-24T00:30:10;26.70;53.50
68480;DHT22;55469;48.934;12.050;2022-07-24T00:32:36;26.70;53.50
68480;DHT22;55469;48.934;12.050;2022-07-24T00:35:02;26.70;53.60
68480;DHT22;55469;48.934;12.050;2022-07-24T00:37:28;26.70;53.70
68480;DHT22;55469;48.934;12.050;2022-07-24T00:39:54;26.70;53.80
68480;DHT22;55469;48.934;12.050;2022-07-24T00:42:20;26.70;53.90
68480;DHT22;55469;48.934;12.050;2022-07-24T00:44:46;26.60;53.90
68480;DHT22;55469;48.934;12.050;2022-07-24T00:47:11;26.60;53.90
68480;DHT22;55469;48.934;12.050;2022-07-24T00:49:37;26.60;53.90
68480;DHT22;55469;48.934;12.050;2022-07-24T00:52:03;26.60;54.00
68480;DHT22;55469;48.934;12.050;2022-07-24T00:54:29;26.60;54.00
68480;DHT22;55469;48.934;12.050;2022-07-24T00:56:55;26.60;54.10
68480;DHT22;55469;48.934;12.050;2022-07-24T00:59:22;26.60;54.30
68480;DHT22;55469;48.934;12.050;2022-07-24T01:01:49;26.60;54.30
68480;DHT22;55469;48.934;12.050;2022-07-24T01:04:15;26.50;54.30
68480;DHT22;55469;48.934;12.050;2022-07-24T01:06:42;26.50;54.30
68480;DHT22;55469;48.934;12.050;2022-07-24T01:09:09;26.50;54.40
68480;DHT22;55469;48.934;12.050;2022-07-24T01:11:36;26.50;54.40
68480;DHT22;55469;48.934;12.050;2022-07-24T01:14:02;26.50;54.40
68480;DHT22;55469;48.934;12.050;2022-07-24T01:16:28;26.40;54.50
68480;DHT22;55469;48.934;12.050;2022-07-24T01:18:53;26.40;54.40
68480;DHT22;55469;48.934;12.050;2022-07-24T01:21:19;26.40;54.50
68480;DHT22;55469;48.934;12.050;2022-07-24T01:23:45;26.40;54.50
68480;DHT22;55469;48.934;12.050;2022-07-24T01:26:11;26.40;54.50
68480;DHT22;55469;48.934;12.050;2022-07-24T01:28:37;26.30;54.40
68480;DHT22;55469;48.934;12.050;2022-07-24T01:31:03;26.30;54.40
68480;DHT22;55469;48.934;12.050;2022-07-24T01:33:30;26.30;54.40
68480;DHT22;55469;48.934;12.050;2022-07-24T01:35:55;26.30;54.50
68480;DHT22;55469;48.934;12.050;2022-07-24T01:38:21;26.30;54.50
68480;DHT22;55469;48.934;12.050;2022-07-24T01:40:47;26.30;54.50
68480;DHT22;55469;48.934;12.050;2022-07-24T01:43:13;26.30;54.50
68480;DHT22;55469;48.934;12.050;2022-07-24T01:45:39;26.30;54.50
68480;DHT22;55469;48.934;12.050;2022-07-24T01:48:04;26.20;54.50
68480;DHT22;55469;48.934;12.050;2022-07-24T01:50:31;26.20;54.50
68480;DHT22;55469;48.934;12.050;2022-07-24T01:52:57;26.20;54.50
68480;DHT22;55469;48.934;12.050;2022-07-24T01:55:23;26.20;54.50
68480;DHT22;55469;48.934;12.050;2022-07-24T01:57:49;26.10;54.50
68480;DHT22;55469;48.934;12.050;2022-07-24T02:00:15;26.10;54.50
68480;DHT22;55469;48.934;12.050;2022-07-24T02:02:43;26.10;54.60
68480;DHT22;55469;48.934;12.050;2022-07-24T02:05:10;26.10;54.70
68480;DHT22;55469;48.934;12.050;2022-07-24T02:07:38;26.10;54.80
68480;DHT22;55469;48.934;12.050;2022-07-24T02:10:05;26.10;54.80
68480;DHT22;55469;48.934;12.050;2022-07-24T02:12:32;26.00;54.70
68480;DHT22;55469;48.934;12.050;2022-07-24T02:14:58;26.00;54.70
68480;DHT22;55469;48.934;12.050;2022-07-24T02:17:24;26.00;54.80
68480;DHT22;55469;48.934;12.050;2022-07-24T02:19:49;26.00;54.90
68480;DHT22;55469;48.934;12.050;2022-07-24T02:22:15;26.00;54.90
68480;DHT22;55469;48.934;12.050;2022-07-24T02:24:41;26.00;55.00
68480;DHT22;55469;48.934;12.050;2022-07-24T02:27:07;25.90;54.80
68480;DHT22;55469;48.934;12.050;2022-07-24T02:29:32;25.90;54.90
68480;DHT22;55469;48.934;12.050;2022-07-24T02:31:59;25.90;55.10
68480;DHT22;55469;48.934;12.050;2022-07-24T02:34:25;25.90;55.00
68480;DHT22;55469;48.934;12.050;2022-07-24T02:36:51;25.90;55.00
68480;DHT22;55469;48.934;12.050;2022-07-24T02:39:16;25.90;55.10
68480;DHT22;55469;48.934;12.050;2022-07-24T02:41:42;25.80;55.00
68480;DHT22;55469;48.934;12.050;2022-07-24T02:44:08;25.80;55.10
68480;DHT22;55469;48.934;12.050;2022-07-24T02:46:34;25.80;55.20
68480;DHT22;55469;48.934;12.050;2022-07-24T02:48:59;25.80;55.10
68480;DHT22;55469;48.934;12.050;2022-07-24T02:51:25;25.80;55.20
68480;DHT22;55469;48.934;12.050;2022-07-24T02:53:51;25.80;55.30
68480;DHT22;55469;48.934;12.050;2022-07-24T02:56:16;25.80;55.40
68480;DHT22;55469;48.934;12.050;2022-07-24T02:58:42;25.70;55.40
68480;DHT22;55469;48.934;12.050;2022-07-24T03:01:08;25.70;55.50
68480;DHT22;55469;48.934;12.050;2022-07-24T03:03:34;25.70;55.50
68480;DHT22;55469;48.934;12.050;2022-07-24T03:05:59;25.70;55.60
68480;DHT22;55469;48.934;12.050;2022-07-24T03:08:25;25.70;55.60
68480;DHT22;55469;48.934;12.050;2022-07-24T03:10:51;25.60;55.60
68480;DHT22;55469;48.934;12.050;2022-07-24T03:13:17;25.60;55.60
68480;DHT22;55469;48.934;12.050;2022-07-24T03:15:43;25.60;55.60
68480;DHT22;55469;48.934;12.050;2022-07-24T03:18:08;25.60;55.60
68480;DHT22;55469;48.934;12.050;2022-07-24T03:20:34;25.60;55.60
68480;DHT22;55469;48.934;12.050;2022-07-24T03:23:00;25.50;55.60
68480;DHT22;55469;48.934;12.050;2022-07-24T03:25:26;25.50;55.60
68480;DHT22;55469;48.934;12.050;2022-07-24T03:27:51;25.50;55.80
68480;DHT22;55469;48.934;12.050;2022-07-24T03:30:18;25.50;55.70
68480;DHT22;55469;48.934;12.050;2022-07-24T03:32:44;25.50;55.70
68480;DHT22;55469;48.934;12.050;2022-07-24T03:35:10;25.50;55.70
68480;DHT22;55469;48.934;12.050;2022-07-24T03:37:36;25.50;55.80
68480;DHT22;55469;48.934;12.050;2022-07-24T03:40:03;25.50;55.90
68480;DHT22;55469;48.934;12.050;2022-07-24T03:42:29;25.40;55.90
68480;DHT22;55469;48.934;12.050;2022-07-24T03:44:55;25.40;55.90
68480;DHT22;55469;48.934;12.050;2022-07-24T03:47:21;25.40;55.90
68480;DHT22;55469;48.934;12.050;2022-07-24T03:49:46;25.40;55.90
68480;DHT22;55469;48.934;12.050;2022-07-24T03:52:12;25.40;55.90
68480;DHT22;55469;48.934;12.050;2022-07-24T03:54:38;25.30;55.90
68480;DHT22;55469;48.934;12.050;2022-07-24T03:57:04;25.30;56.00
68480;DHT22;55469;48.934;12.050;2022-07-24T03:59:30;25.30;56.00
68480;DHT22;55469;48.934;12.050;2022-07-24T04:01:55;25.30;56.00
68480;DHT22;55469;48.934;12.050;2022-07-24T04:04:21;25.30;56.00
68480;DHT22;55469;48.934;12.050;2022-07-24T04:06:47;25.30;56.00
68480;DHT22;55469;48.934;12.050;2022-07-24T04:09:13;25.20;56.00
68480;DHT22;55469;48.934;12.050;2022-07-24T04:11:38;25.20;56.00
68480;DHT22;55469;48.934;12.050;2022-07-24T04:14:04;25.20;56.00
68480;DHT22;55469;48.934;12.050;2022-07-24T04:16:30;25.20;56.10
68480;DHT22;55469;48.934;12.050;2022-07-24T04:18:56;25.20;56.20
68480;DHT22;55469;48.934;12.050;2022-07-24T04:21:22;25.20;56.30
68480;DHT22;55469;48.934;12.050;2022-07-24T04:23:48;25.20;56.30
68480;DHT22;55469;48.934;12.050;2022-07-24T04:26:14;25.10;56.20
68480;DHT22;55469;48.934;12.050;2022-07-24T04:28:39;25.10;56.30
68480;DHT22;55469;48.934;12.050;2022-07-24T04:31:07;25.10;56.30
68480;DHT22;55469;48.934;12.050;2022-07-24T04:33:33;25.10;56.30
68480;DHT22;55469;48.934;12.050;2022-07-24T04:35:59;25.10;56.30
68480;DHT22;55469;48.934;12.050;2022-07-24T04:38:25;25.10;56.40
68480;DHT22;55469;48.934;12.050;2022-07-24T04:40:51;25.10;56.50
68480;DHT22;55469;48.934;12.050;2022-07-24T04:43:17;25.00;56.40
68480;DHT22;55469;48.934;12.050;2022-07-24T04:45:42;25.00;56.50
68480;DHT22;55469;48.934;12.050;2022-07-24T04:48:09;25.00;56.50
68480;DHT22;55469;48.934;12.050;2022-07-24T04:50:35;25.00;56.60
68480;DHT22;55469;48.934;12.050;2022-07-24T04:53:01;25.00;56.60
68480;DHT22;55469;48.934;12.050;2022-07-24T04:55:26;25.00;56.70
68480;DHT22;55469;48.934;12.050;2022-07-24T04:57:53;25.00;56.70
68480;DHT22;55469;48.934;12.050;2022-07-24T05:00:19;24.90;56.70
68480;DHT22;55469;48.934;12.050;2022-07-24T05:02:45;24.90;56.70
68480;DHT22;55469;48.934;12.050;2022-07-24T05:05:11;24.90;57.80
68480;DHT22;55469;48.934;12.050;2022-07-24T05:07:37;24.90;56.80
68480;DHT22;55469;48.934;12.050;2022-07-24T05:10:04;24.90;56.90
68480;DHT22;55469;48.934;12.050;2022-07-24T05:12:30;24.90;57.00
68480;DHT22;55469;48.934;12.050;2022-07-24T05:14:56;24.90;57.00
68480;DHT22;55469;48.934;12.050;2022-07-24T05:17:22;24.80;57.00
68480;DHT22;55469;48.934;12.050;2022-07-24T05:19:48;24.80;57.00
68480;DHT22;55469;48.934;12.050;2022-07-24T05:22:14;24.80;57.10
68480;DHT22;55469;48.934;12.050;2022-07-24T05:24:40;24.80;57.20
68480;DHT22;55469;48.934;12.050;2022-07-24T05:27:05;24.80;57.30
68480;DHT22;55469;48.934;12.050;2022-07-24T05:29:31;24.80;57.20
68480;DHT22;55469;48.934;12.050;2022-07-24T05:31:57;24.80;57.40
68480;DHT22;55469;48.934;12.050;2022-07-24T05:34:23;24.70;57.30
68480;DHT22;55469;48.934;12.050;2022-07-24T05:36:49;24.80;57.40
68480;DHT22;55469;48.934;12.050;2022-07-24T05:39:15;24.70;57.50
68480;DHT22;55469;48.934;12.050;2022-07-24T05:41:41;24.80;57.60
68480;DHT22;55469;48.934;12.050;2022-07-24T05:44:06;24.70;57.60
68480;DHT22;55469;48.934;12.050;2022-07-24T05:46:32;24.70;57.70
68480;DHT22;55469;48.934;12.050;2022-07-24T05:48:58;24.70;57.80
68480;DHT22;55469;48.934;12.050;2022-07-24T05:51:24;24.70;57.90
68480;DHT22;55469;48.934;12.050;2022-07-24T05:53:51;24.70;58.10
68480;DHT22;55469;48.934;12.050;2022-07-24T05:56:17;24.70;58.20
68480;DHT22;55469;48.934;12.050;2022-07-24T05:58:43;24.60;58.40
68480;DHT22;55469;48.934;12.050;2022-07-24T06:01:09;24.60;58.50
68480;DHT22;55469;48.934;12.050;2022-07-24T06:03:35;24.60;58.70
68480;DHT22;55469;48.934;12.050;2022-07-24T06:06:03;24.60;58.80
68480;DHT22;55469;48.934;12.050;2022-07-24T06:08:30;24.60;59.00
68480;DHT22;55469;48.934;12.050;2022-07-24T06:10:56;24.60;59.10
68480;DHT22;55469;48.934;12.050;2022-07-24T06:13:21;24.60;59.10
68480;DHT22;55469;48.934;12.050;2022-07-24T06:15:47;24.60;59.30
68480;DHT22;55469;48.934;12.050;2022-07-24T06:18:13;24.60;59.30
68480;DHT22;55469;48.934;12.050;2022-07-24T06:20:39;24.60;59.40
68480;DHT22;55469;48.934;12.050;2022-07-24T06:23:05;24.50;59.40
68480;DHT22;55469;48.934;12.050;2022-07-24T06:25:30;24.60;59.40
68480;DHT22;55469;48.934;12.050;2022-07-24T06:27:56;24.50;59.30
68480;DHT22;55469;48.934;12.050;2022-07-24T06:30:25;24.50;59.40
68480;DHT22;55469;48.934;12.050;2022-07-24T06:32:56;24.50;59.80
68480;DHT22;55469;48.934;12.050;2022-07-24T06:35:24;24.50;59.90
68480;DHT22;55469;48.934;12.050;2022-07-24T06:37:51;24.50;60.10
68480;DHT22;55469;48.934;12.050;2022-07-24T06:40:18;24.50;60.10
68480;DHT22;55469;48.934;12.050;2022-07-24T06:42:45;24.50;60.30
68480;DHT22;55469;48.934;12.050;2022-07-24T06:45:12;24.50;60.50
68480;DHT22;55469;48.934;12.050;2022-07-24T06:47:38;24.50;60.40
68480;DHT22;55469;48.934;12.050;2022-07-24T06:50:05;24.40;60.50
68480;DHT22;55469;48.934;12.050;2022-07-24T06:52:31;24.40;60.60
68480;DHT22;55469;48.934;12.050;2022-07-24T06:54:57;24.40;60.70
68480;DHT22;55469;48.934;12.050;2022-07-24T06:57:23;24.40;61.90
68480;DHT22;55469;48.934;12.050;2022-07-24T06:59:52;24.40;60.70
68480;DHT22;55469;48.934;12.050;2022-07-24T07:02:18;24.40;60.70
68480;DHT22;55469;48.934;12.050;2022-07-24T07:04:44;24.40;60.70
68480;DHT22;55469;48.934;12.050;2022-07-24T07:07:10;24.40;60.70
68480;DHT22;55469;48.934;12.050;2022-07-24T07:09:36;24.40;60.80
68480;DHT22;55469;48.934;12.050;2022-07-24T07:12:04;24.40;60.90
68480;DHT22;55469;48.934;12.050;2022-07-24T07:14:31;24.40;60.80
68480;DHT22;55469;48.934;12.050;2022-07-24T07:16:56;24.40;60.90
68480;DHT22;55469;48.934;12.050;2022-07-24T07:19:22;24.40;61.00
68480;DHT22;55469;48.934;12.050;2022-07-24T07:21:48;24.40;61.00
68480;DHT22;55469;48.934;12.050;2022-07-24T07:24:14;24.40;61.10
68480;DHT22;55469;48.934;12.050;2022-07-24T07:26:40;24.40;61.10
68480;DHT22;55469;48.934;12.050;2022-07-24T07:29:05;24.40;60.90
68480;DHT22;55469;48.934;12.050;2022-07-24T07:31:31;24.40;60.80
68480;DHT22;55469;48.934;12.050;2022-07-24T07:33:57;24.40;60.80
68480;DHT22;55469;48.934;12.050;2022-07-24T07:36:24;24.40;60.90
68480;DHT22;55469;48.934;12.050;2022-07-24T07:38:50;24.40;60.90
68480;DHT22;55469;48.934;12.050;2022-07-24T07:41:16;24.40;60.80
68480;DHT22;55469;48.934;12.050;2022-07-24T07:43:45;24.40;60.80
68480;DHT22;55469;48.934;12.050;2022-07-24T07:46:13;24.40;60.90
68480;DHT22;55469;48.934;12.050;2022-07-24T07:48:39;24.40;61.00
68480;DHT22;55469;48.934;12.050;2022-07-24T07:51:05;24.40;61.10
68480;DHT22;55469;48.934;12.050;2022-07-24T07:53:31;24.40;61.10
68480;DHT22;55469;48.934;12.050;2022-07-24T07:55:57;24.40;61.10
68480;DHT22;55469;48.934;12.050;2022-07-24T07:58:23;24.40;61.10
68480;DHT22;55469;48.934;12.050;2022-07-24T08:00:49;24.40;61.10
68480;DHT22;55469;48.934;12.050;2022-07-24T08:03:15;24.40;61.00
68480;DHT22;55469;48.934;12.050;2022-07-24T08:05:41;24.40;60.90
68480;DHT22;55469;48.934;12.050;2022-07-24T08:08:07;24.40;60.80
68480;DHT22;55469;48.934;12.050;2022-07-24T08:10:33;24.40;60.90
68480;DHT22;55469;48.934;12.050;2022-07-24T08:12:59;24.50;60.90
68480;DHT22;55469;48.934;12.050;2022-07-24T08:15:24;24.40;60.70
68480;DHT22;55469;48.934;12.050;2022-07-24T08:17:55;24.50;60.70
68480;DHT22;55469;48.934;12.050;2022-07-24T08:20:23;24.50;60.90
68480;DHT22;55469;48.934;12.050;2022-07-24T08:22:49;24.50;60.90
68480;DHT22;55469;48.934;12.050;2022-07-24T08:25:16;24.50;60.70
68480;DHT22;55469;48.934;12.050;2022-07-24T08:27:42;24.50;60.80
68480;DHT22;55469;48.934;12.050;2022-07-24T08:30:09;24.50;60.70
68480;DHT22;55469;48.934;12.050;2022-07-24T08:32:35;24.50;60.70
68480;DHT22;55469;48.934;12.050;2022-07-24T08:35:01;24.50;60.60
68480;DHT22;55469;48.934;12.050;2022-07-24T08:37:27;24.50;60.50
68480;DHT22;55469;48.934;12.050;2022-07-24T08:39:53;24.60;60.40
68480;DHT22;55469;48.934;12.050;2022-07-24T08:42:20;24.60;60.40
68480;DHT22;55469;48.934;12.050;2022-07-24T08:44:47;24.60;60.40
68480;DHT22;55469;48.934;12.050;2022-07-24T08:47:15;24.60;60.30
68480;DHT22;55469;48.934;12.050;2022-07-24T08:49:41;24.60;60.20
68480;DHT22;55469;48.934;12.050;2022-07-24T08:52:09;24.60;60.20
68480;DHT22;55469;48.934;12.050;2022-07-24T08:54:36;24.60;60.10
68480;DHT22;55469;48.934;12.050;2022-07-24T08:57:03;24.60;60.10
68480;DHT22;55469;48.934;12.050;2022-07-24T08:59:29;24.60;60.00
68480;DHT22;55469;48.934;12.050;2022-07-24T09:01:55;24.70;59.70
68480;DHT22;55469;48.934;12.050;2022-07-24T09:07:10;24.70;59.70
68480;DHT22;55469;48.934;12.050;2022-07-24T09:09:38;24.70;59.60
68480;DHT22;55469;48.934;12.050;2022-07-24T09:14:42;24.70;59.50
68480;DHT22;55469;48.934;12.050;2022-07-24T09:17:12;24.80;59.50
68480;DHT22;55469;48.934;12.050;2022-07-24T09:19:59;24.80;59.50
68480;DHT22;55469;48.934;12.050;2022-07-24T09:25:17;24.80;59.50
68480;DHT22;55469;48.934;12.050;2022-07-24T09:27:55;24.80;59.50
68480;DHT22;55469;48.934;12.050;2022-07-24T09:30:24;24.90;59.50
68480;DHT22;55469;48.934;12.050;2022-07-24T09:33:06;24.90;59.40
68480;DHT22;55469;48.934;12.050;2022-07-24T09:35:42;24.90;59.30
68480;DHT22;55469;48.934;12.050;2022-07-24T09:38:23;25.00;59.30
68480;DHT22;55469;48.934;12.050;2022-07-24T09:40:54;25.00;59.00
68480;DHT22;55469;48.934;12.050;2022-07-24T09:46:01;25.00;58.80
68480;DHT22;55469;48.934;12.050;2022-07-24T09:48:30;25.00;58.70
68480;DHT22;55469;48.934;12.050;2022-07-24T09:51:02;25.00;58.40
68480;DHT22;55469;48.934;12.050;2022-07-24T09:53:31;25.00;58.10
68480;DHT22;55469;48.934;12.050;2022-07-24T09:58:31;25.10;57.90
68480;DHT22;55469;48.934;12.050;2022-07-24T10:00:59;25.20;58.00
68480;DHT22;55469;48.934;12.050;2022-07-24T10:03:33;25.20;57.70
68480;DHT22;55469;48.934;12.050;2022-07-24T10:06:03;25.20;57.30
68480;DHT22;55469;48.934;12.050;2022-07-24T10:08:31;25.20;57.10
68480;DHT22;55469;48.934;12.050;2022-07-24T10:10:59;25.20;57.10
68480;DHT22;55469;48.934;12.050;2022-07-24T10:13:26;25.20;57.00
68480;DHT22;55469;48.934;12.050;2022-07-24T10:18:46;25.30;56.80
68480;DHT22;55469;48.934;12.050;2022-07-24T10:27:04;25.30;57.70
68480;DHT22;55469;48.934;12.050;2022-07-24T10:29:33;25.30;56.40
68480;DHT22;55469;48.934;12.050;2022-07-24T10:32:00;25.40;56.30
68480;DHT22;55469;48.934;12.050;2022-07-24T10:35:39;25.40;56.30
68480;DHT22;55469;48.934;12.050;2022-07-24T10:38:19;25.40;56.40
68480;DHT22;55469;48.934;12.050;2022-07-24T10:40:52;25.40;56.10
68480;DHT22;55469;48.934;12.050;2022-07-24T10:43:21;25.40;56.20
68480;DHT22;55469;48.934;12.050;2022-07-24T10:51:05;25.40;55.70
68480;DHT22;55469;48.934;12.050;2022-07-24T10:59:13;25.50;55.80
68480;DHT22;55469;48.934;12.050;2022-07-24T11:01:44;25.50;55.80
68480;DHT22;55469;48.934;12.050;2022-07-24T11:04:30;25.60;55.60
68480;DHT22;55469;48.934;12.050;2022-07-24T11:09:55;25.60;55.40
68480;DHT22;55469;48.934;12.050;2022-07-24T11:12:33;25.60;55.40
68480;DHT22;55469;48.934;12.050;2022-07-24T11:15:05;25.60;55.40
68480;DHT22;55469;48.934;12.050;2022-07-24T11:17:51;25.60;55.40
68480;DHT22;55469;48.934;12.050;2022-07-24T11:20:18;25.60;55.50
68480;DHT22;55469;48.934;12.050;2022-07-24T11:22:51;25.60;55.40
68480;DHT22;55469;48.934;12.050;2022-07-24T11:25:22;25.70;55.50
68480;DHT22;55469;48.934;12.050;2022-07-24T11:28:11;25.70;55.30
68480;DHT22;55469;48.934;12.050;2022-07-24T11:30:43;25.70;55.20
68480;DHT22;55469;48.934;12.050;2022-07-24T11:33:10;25.70;55.20
68480;DHT22;55469;48.934;12.050;2022-07-24T11:35:38;25.70;55.20
68480;DHT22;55469;48.934;12.050;2022-07-24T11:38:06;25.70;55.20
68480;DHT22;55469;48.934;12.050;2022-07-24T11:40:33;25.80;55.10
68480;DHT22;55469;48.934;12.050;2022-07-24T11:43:03;25.70;55.00
68480;DHT22;55469;48.934;12.050;2022-07-24T11:45:30;25.70;54.90
68480;DHT22;55469;48.934;12.050;2022-07-24T11:47:57;25.80;55.00
68480;DHT22;55469;48.934;12.050;2022-07-24T11:50:25;25.80;54.90
68480;DHT22;55469;48.934;12.050;2022-07-24T11:52:52;25.90;55.00
68480;DHT22;55469;48.934;12.050;2022-07-24T11:55:21;25.80;54.90
68480;DHT22;55469;48.934;12.050;2022-07-24T11:57:53;25.90;55.00
68480;DHT22;55469;48.934;12.050;2022-07-24T12:00:23;25.90;55.00
68480;DHT22;55469;48.934;12.050;2022-07-24T12:02:56;25.90;55.00
68480;DHT22;55469;48.934;12.050;2022-07-24T12:05:35;25.90;54.80
68480;DHT22;55469;48.934;12.050;2022-07-24T12:08:22;26.00;54.80
68480;DHT22;55469;48.934;12.050;2022-07-24T12:10:56;26.00;54.90
68480;DHT22;55469;48.934;12.050;2022-07-24T12:13:23;26.00;54.90
68480;DHT22;55469;48.934;12.050;2022-07-24T12:15:49;26.00;54.80
68480;DHT22;55469;48.934;12.050;2022-07-24T12:18:15;26.00;54.90
68480;DHT22;55469;48.934;12.050;2022-07-24T12:20:43;26.00;54.80
68480;DHT22;55469;48.934;12.050;2022-07-24T12:23:11;26.00;54.70
68480;DHT22;55469;48.934;12.050;2022-07-24T12:25:39;26.00;55.70
68480;DHT22;55469;48.934;12.050;2022-07-24T12:28:16;26.10;54.70
68480;DHT22;55469;48.934;12.050;2022-07-24T12:30:46;26.10;54.60
68480;DHT22;55469;48.934;12.050;2022-07-24T12:38:37;26.30;54.10
68480;DHT22;55469;48.934;12.050;2022-07-24T12:41:07;26.30;53.90
68480;DHT22;55469;48.934;12.050;2022-07-24T12:46:13;26.40;53.10
68480;DHT22;55469;48.934;12.050;2022-07-24T12:48:39;26.40;53.10
68480;DHT22;55469;48.934;12.050;2022-07-24T12:51:08;26.40;53.20
68480;DHT22;55469;48.934;12.050;2022-07-24T12:53:37;26.50;53.10
68480;DHT22;55469;48.934;12.050;2022-07-24T12:56:16;26.50;53.20
68480;DHT22;55469;48.934;12.050;2022-07-24T12:58:53;26.50;53.30
68480;DHT22;55469;48.934;12.050;2022-07-24T13:01:22;26.50;53.30
68480;DHT22;55469;48.934;12.050;2022-07-24T13:04:01;26.60;53.20
68480;DHT22;55469;48.934;12.050;2022-07-24T13:06:45;26.60;53.00
68480;DHT22;55469;48.934;12.050;2022-07-24T13:09:13;26.60;53.00
68480;DHT22;55469;48.934;12.050;2022-07-24T13:11:40;26.60;53.00
68480;DHT22;55469;48.934;12.050;2022-07-24T13:14:08;26.60;53.00
68480;DHT22;55469;48.934;12.050;2022-07-24T13:16:38;26.70;53.10
68480;DHT22;55469;48.934;12.050;2022-07-24T13:19:06;26.70;53.00
68480;DHT22;55469;48.934;12.050;2022-07-24T13:21:33;26.70;52.90
68480;DHT22;55469;48.934;12.050;2022-07-24T13:23:59;26.70;52.70
68480;DHT22;55469;48.934;12.050;2022-07-24T13:26:25;26.70;52.70
68480;DHT22;55469;48.934;12.050;2022-07-24T13:28:51;26.70;52.80
68480;DHT22;55469;48.934;12.050;2022-07-24T13:31:18;26.70;52.70
68480;DHT22;55469;48.934;12.050;2022-07-24T13:33:46;26.70;52.80
68480;DHT22;55469;48.934;12.050;2022-07-24T13:36:13;26.80;52.90
68480;DHT22;55469;48.934;12.050;2022-07-24T13:38:39;26.80;52.80
68480;DHT22;55469;48.934;12.050;2022-07-24T13:41:05;26.80;53.70
68480;DHT22;55469;48.934;12.050;2022-07-24T13:43:31;26.80;52.60
68480;DHT22;55469;48.934;12.050;2022-07-24T13:45:57;26.90;52.80
68480;DHT22;55469;48.934;12.050;2022-07-24T13:48:23;26.90;52.70
68480;DHT22;55469;48.934;12.050;2022-07-24T13:50:49;26.90;52.70
68480;DHT22;55469;48.934;12.050;2022-07-24T13:53:15;26.90;52.70
68480;DHT22;55469;48.934;12.050;2022-07-24T13:55:41;26.90;52.60
68480;DHT22;55469;48.934;12.050;2022-07-24T13:58:06;26.90;52.60
68480;DHT22;55469;48.934;12.050;2022-07-24T14:00:33;27.00;52.60
68480;DHT22;55469;48.934;12.050;2022-07-24T14:02:59;26.90;52.50
68480;DHT22;55469;48.934;12.050;2022-07-24T14:05:25;27.00;52.40
68480;DHT22;55469;48.934;12.050;2022-07-24T14:07:51;27.00;52.40
68480;DHT22;55469;48.934;12.050;2022-07-24T14:10:19;27.00;52.40
68480;DHT22;55469;48.934;12.050;2022-07-24T14:12:45;27.00;52.30
68480;DHT22;55469;48.934;12.050;2022-07-24T14:15:11;27.10;52.40
68480;DHT22;55469;48.934;12.050;2022-07-24T14:17:41;27.10;52.30
68480;DHT22;55469;48.934;12.050;2022-07-24T14:20:08;27.10;52.40
68480;DHT22;55469;48.934;12.050;2022-07-24T14:22:36;27.10;52.30
68480;DHT22;55469;48.934;12.050;2022-07-24T14:25:04;27.10;52.20
68480;DHT22;55469;48.934;12.050;2022-07-24T14:27:31;27.20;52.30
68480;DHT22;55469;48.934;12.050;2022-07-24T14:29:57;27.20;52.20
68480;DHT22;55469;48.934;12.050;2022-07-24T14:32:23;27.30;52.20
68480;DHT22;55469;48.934;12.050;2022-07-24T14:34:49;27.30;52.10
68480;DHT22;55469;48.934;12.050;2022-07-24T14:37:16;27.30;52.00
68480;DHT22;55469;48.934;12.050;2022-07-24T14:39:42;27.30;52.00
68480;DHT22;55469;48.934;12.050;2022-07-24T14:42:08;27.30;51.90
68480;DHT22;55469;48.934;12.050;2022-07-24T14:44:34;27.40;51.90
68480;DHT22;55469;48.934;12.050;2022-07-24T14:47:00;27.40;51.90
68480;DHT22;55469;48.934;12.050;2022-07-24T14:49:27;27.40;51.80
68480;DHT22;55469;48.934;12.050;2022-07-24T14:51:53;27.40;51.80
68480;DHT22;55469;48.934;12.050;2022-07-24T14:54:19;27.40;51.70
68480;DHT22;55469;48.934;12.050;2022-07-24T14:56:45;27.50;51.80
68480;DHT22;55469;48.934;12.050;2022-07-24T14:59:11;27.50;51.80
68480;DHT22;55469;48.934;12.050;2022-07-24T15:01:38;27.50;51.70
68480;DHT22;55469;48.934;12.050;2022-07-24T15:04:04;27.50;51.60
68480;DHT22;55469;48.934;12.050;2022-07-24T15:06:30;27.60;51.60
68480;DHT22;55469;48.934;12.050;2022-07-24T15:08:56;27.60;51.40
68480;DHT22;55469;48.934;12.050;2022-07-24T15:11:22;27.60;52.20
68480;DHT22;55469;48.934;12.050;2022-07-24T15:13:51;27.70;51.20
68480;DHT22;55469;48.934;12.050;2022-07-24T15:16:17;27.70;51.20
68480;DHT22;55469;48.934;12.050;2022-07-24T15:18:43;27.70;51.00
68480;DHT22;55469;48.934;12.050;2022-07-24T15:21:09;27.80;50.50
68480;DHT22;55469;48.934;12.050;2022-07-24T15:23:35;27.80;50.40
68480;DHT22;55469;48.934;12.050;2022-07-24T15:26:02;27.80;50.30
68480;DHT22;55469;48.934;12.050;2022-07-24T15:28:28;27.80;50.50
68480;DHT22;55469;48.934;12.050;2022-07-24T15:30:54;27.90;50.60
68480;DHT22;55469;48.934;12.050;2022-07-24T15:33:20;27.90;50.60
68480;DHT22;55469;48.934;12.050;2022-07-24T15:35:46;27.90;50.70
68480;DHT22;55469;48.934;12.050;2022-07-24T15:38:12;28.00;50.70
68480;DHT22;55469;48.934;12.050;2022-07-24T15:40:39;28.00;50.50
68480;DHT22;55469;48.934;12.050;2022-07-24T15:43:06;28.00;50.10
68480;DHT22;55469;48.934;12.050;2022-07-24T15:45:31;28.00;49.90
68480;DHT22;55469;48.934;12.050;2022-07-24T15:47:57;28.10;49.80
68480;DHT22;55469;48.934;12.050;2022-07-24T15:50:23;28.00;49.90
68480;DHT22;55469;48.934;12.050;2022-07-24T15:52:49;28.10;49.70
68480;DHT22;55469;48.934;12.050;2022-07-24T15:55:15;28.10;49.70
68480;DHT22;55469;48.934;12.050;2022-07-24T15:57:41;28.10;49.40
68480;DHT22;55469;48.934;12.050;2022-07-24T16:00:07;28.10;49.40